Latest Weather Observations for Laverton

IDV60901

Issued at 1:51 am EDT Wednesday 20 March 2019 (issued every 10 minutes, with the page automatically refreshed every 10 minutes)

About weather observations | Map of Melbourne area stations | Latest observations for Melbourne area | Other Formats
Station Details ID: 087031 Name: LAVERTON RAAF Lat: -37.86 Lon: 144.76 Height: 20.1 m
Data from the previous 72 hours. | See also: Recent months at Laverton
Date/Time
EDT
Temp
°C
App
Temp
°C
Dew
Point
°C
Rel
Hum
%
Delta-T
°C
Wind Press
QNH
hPa
Press
MSL
hPa
Rain since
9am
mm
Dir  Spd
km/h
Gust
km/h
Spd
kts
Gust
kts
20/01:30am 18.9 19.9 18.7 99 0.1 S 11 20 6 11 1015.1 1015.0 0.0
20/01:00am 18.8 19.0 18.6 99 0.1 SSW 15 20 8 11 1015.5 1015.4 0.0
20/12:30am 18.9 19.1 18.6 98 0.2 S 15 20 8 11 1015.8 1015.7 0.0
20/12:00am 19.0 19.6 18.5 97 0.3 S 13 19 7 10 1016.1 1016.0 0.0
 
Date/Time
EDT
Temp
°C
App
Temp
°C
Dew
Point
°C
Rel
Hum
%
Delta-T
°C
Wind Press
QNH
hPa
Press
MSL
hPa
Rain since
9am
mm
Dir  Spd
km/h
Gust
km/h
Spd
kts
Gust
kts
19/11:30pm 18.9 18.9 18.2 96 0.4 SSW 15 20 8 11 1016.3 1016.2 0.0
19/11:00pm 18.9 18.9 18.1 95 0.5 SSW 15 20 8 11 1016.5 1016.4 0.0
19/10:30pm 19.1 19.3 17.6 91 0.9 S 13 17 7 9 1016.6 1016.5 0.0
19/10:00pm 19.1 19.2 17.4 90 1.0 S 13 17 7 9 1016.6 1016.5 0.0
19/09:30pm 19.1 18.3 17.2 89 1.2 SSE 17 20 9 11 1016.3 1016.2 0.0
19/09:00pm 19.2 19.2 17.2 88 1.2 SSE 13 20 7 11 1016.1 1016.0 0.0
19/08:30pm 19.3 19.3 17.1 87 1.3 S 13 19 7 10 1016.0 1015.9 0.0
19/08:00pm 19.3 18.5 17.1 87 1.3 SSE 17 24 9 13 1015.8 1015.7 0.0
19/07:30pm 19.4 18.9 17.0 86 1.5 SSE 15 20 8 11 1015.6 1015.5 0.0
19/07:00pm 19.4 18.6 17.2 87 1.3 S 17 24 9 13 1015.4 1015.3 0.0
19/06:30pm 19.6 18.3 17.2 86 1.5 S 20 28 11 15 1015.1 1015.0 0.0
19/06:00pm 20.2 18.5 17.2 83 1.8 S 22 30 12 16 1015.0 1014.9 0.0
19/05:30pm 20.7 19.4 17.3 81 2.1 S 20 30 11 16 1014.9 1014.8 0.0
19/05:06pm 21.1 19.9 17.5 80 2.2 S 20 32 11 17 1014.8 1014.7 0.0
19/05:00pm 20.9 18.9 17.5 81 2.1 S 24 32 13 17 1014.8 1014.7 0.0
19/04:30pm 21.4 19.5 17.6 79 2.3 S 24 32 13 17 1014.8 1014.7 0.0
19/04:00pm 21.7 19.7 17.3 76 2.7 S 24 33 13 18 1014.9 1014.8 0.0
19/03:30pm 22.3 20.2 17.2 73 3.1 S 24 30 13 16 1015.0 1014.9 0.0
19/03:00pm 22.5 20.8 17.2 72 3.3 S 22 30 12 16 1015.2 1015.1 0.0
19/02:30pm 22.8 21.1 17.3 71 3.4 S 22 32 12 17 1015.5 1015.4 0.0
19/02:00pm 23.0 21.6 17.0 69 3.7 S 20 30 11 16 1015.7 1015.6 0.0
19/01:30pm 22.1 20.7 17.0 73 3.1 S 20 28 11 15 1016.1 1016.0 0.0
19/01:00pm 21.9 20.5 17.1 74 2.9 S 20 26 11 14 1016.4 1016.3 0.0
19/12:30pm 21.3 20.2 17.3 78 2.5 SSE 19 28 10 15 1016.5 1016.4 0.0
19/12:00pm 20.9 20.0 16.9 78 2.4 SSE 17 24 9 13 1016.8 1016.7 0.0
19/11:37am 20.9 20.1 17.1 79 2.3 SSE 17 24 9 13 1017.0 1016.9 0.0
19/11:30am 21.0 20.2 17.0 78 2.4 SSE 17 22 9 12 1017.0 1016.9 0.0
19/11:00am 20.9 20.3 17.5 81 2.1 SE 17 24 9 13 1017.1 1017.0 0.0
19/10:30am 20.1 18.9 17.1 83 1.8 SSE 19 24 10 13 1017.0 1016.9 0.0
19/10:08am 20.2 18.9 16.8 81 2.1 SE 19 28 10 15 1016.8 1016.7 0.0
19/10:00am 20.1 18.8 16.7 81 2.1 SE 19 26 10 14 1016.7 1016.6 0.0
19/09:30am 19.6 18.7 16.8 84 1.7 SE 17 22 9 12 1016.6 1016.5 0.0
19/09:00am 19.7 20.1 16.2 80 2.1 E 9 17 5 9 1016.5 1016.4 0.0
19/08:30am 19.6 20.0 16.3 81 2.0 E 9 13 5 7 1016.3 1016.2 0.0
19/08:00am 19.3 19.8 16.5 84 1.7 ESE 9 13 5 7 1016.1 1016.0 0.0
19/07:59am 19.3 19.8 16.5 84 1.7 ESE 9 13 5 7 1016.1 1016.0 0.0
19/07:30am 19.1 19.2 16.5 85 1.6 ESE 11 17 6 9 1015.7 1015.6 0.0
19/07:00am 19.0 18.3 16.4 85 1.6 SE 15 20 8 11 1015.5 1015.4 0.0
19/06:30am 19.1 19.2 16.5 85 1.6 ESE 11 15 6 8 1015.2 1015.1 0.0
19/06:00am 19.1 18.4 16.5 85 1.6 ESE 15 20 8 11 1015.3 1015.2 0.0
19/05:30am 19.1 17.8 16.7 86 1.4 ESE 19 28 10 15 1015.0 1014.9 0.0
19/05:00am 19.2 17.8 16.6 85 1.6 SE 19 24 10 13 1015.1 1015.0 0.0
19/04:48am 19.2 17.9 16.8 86 1.4 SE 19 28 10 15 1015.1 1015.0 0.0
19/04:30am 19.2 18.2 16.6 85 1.6 SE 17 28 9 15 1015.2 1015.1 0.0
19/04:00am 19.2 18.1 16.4 84 1.7 SE 17 26 9 14 1015.3 1015.2 0.0
19/03:30am 19.2 17.7 16.4 84 1.7 SE 19 28 10 15 1015.5 1015.4 0.0
19/03:00am 19.4 18.3 16.4 83 1.8 SE 17 28 9 15 1015.6 1015.5 0.0
19/02:30am 19.3 18.9 16.3 83 1.8 SE 13 19 7 10 1015.7 1015.6 0.0
19/02:00am 19.4 19.1 16.4 83 1.8 SE 13 20 7 11 1015.8 1015.7 0.0
19/01:30am 19.3 19.3 16.3 83 1.8 SE 11 20 6 11 1016.0 1015.9 0.0
19/01:00am 19.3 18.9 16.3 83 1.8 SE 13 20 7 11 1016.2 1016.1 0.0
19/12:30am 19.1 18.0 16.3 84 1.7 SE 17 22 9 12 1016.1 1016.0 0.0
19/12:00am 19.2 17.7 16.2 83 1.8 ESE 19 32 10 17 1016.1 1016.0 0.0
 
Date/Time
EDT
Temp
°C
App
Temp
°C
Dew
Point
°C
Rel
Hum
%
Delta-T
°C
Wind Press
QNH
hPa
Press
MSL
hPa
Rain since
9am
mm
Dir  Spd
km/h
Gust
km/h
Spd
kts
Gust
kts
18/11:30pm 19.1 17.3 16.1 83 1.8 ESE 20 39 11 21 1016.0 1015.9 0.0
18/11:00pm 19.2 17.1 16.2 83 1.8 SE 22 32 12 17 1016.3 1016.2 0.0
18/10:30pm 19.5 16.6 16.2 81 2.0 SE 26 37 14 20 1016.4 1016.3 0.0
18/10:00pm 19.6 16.8 16.3 81 2.0 ESE 26 39 14 21 1016.4 1016.3 0.0
18/09:30pm 20.0 17.2 16.4 80 2.2 SE 26 37 14 20 1016.1 1016.0 0.0
18/09:00pm 20.7 17.9 16.3 76 2.6 SE 26 39 14 21 1015.8 1015.7 0.0
18/08:30pm 21.3 18.6 16.5 74 2.9 SE 26 41 14 22 1015.3 1015.2 0.0
18/08:00pm 21.8 19.8 16.5 72 3.2 SE 22 35 12 19 1014.9 1014.8 0.0
18/07:30pm 22.7 20.3 16.3 67 3.9 SE 24 33 13 18 1014.7 1014.6 0.0
18/07:00pm 23.6 20.4 16.4 64 4.4 SE 28 39 15 21 1014.5 1014.4 0.0
18/06:30pm 24.4 22.6 16.9 63 4.6 SE 22 32 12 17 1014.4 1014.3 0.0
18/06:00pm 25.2 23.4 16.9 60 5.1 SSE 22 32 12 17 1014.3 1014.2 0.0
18/05:30pm 25.3 23.0 16.7 59 5.3 SSE 24 32 13 17 1014.3 1014.2 0.0
18/05:00pm 25.3 23.0 16.7 59 5.3 SSE 24 33 13 18 1014.5 1014.4 0.0
18/04:30pm 25.8 23.5 16.6 56 5.7 S 24 33 13 18 1014.7 1014.6 0.0
18/04:00pm 25.7 23.7 16.5 56 5.7 SSE 22 30 12 16 1015.0 1014.9 0.0
18/03:30pm 26.1 23.8 16.6 55 5.9 SSE 24 35 13 19 1015.1 1015.0 0.0
18/03:00pm 25.5 23.2 16.6 58 5.5 SSE 24 35 13 19 1015.6 1015.5 0.0
18/02:30pm 24.8 22.2 16.0 58 5.4 S 24 30 13 16 1016.0 1015.9 0.0
18/02:00pm 24.9 22.8 16.3 59 5.3 SSE 22 32 12 17 1016.4 1016.3 0.0
18/01:30pm 24.7 22.6 16.2 59 5.2 SE 22 32 12 17 1016.8 1016.7 0.0
18/01:00pm 23.9 20.9 15.9 61 4.8 SSE 26 35 14 19 1017.1 1017.0 0.0
18/12:30pm 23.2 20.1 15.5 62 4.6 SE 26 35 14 19 1017.5 1017.4 0.0
18/12:00pm 22.3 20.0 15.6 66 4.0 SE 22 30 12 16 1017.8 1017.7 0.0
18/11:30am 22.2 19.8 15.3 65 4.1 SE 22 33 12 18 1018.1 1018.0 0.0
18/11:00am 21.1 18.5 15.0 68 3.6 SE 22 32 12 17 1018.3 1018.2 0.0
18/10:30am 20.7 18.6 15.3 71 3.2 SE 20 28 11 15 1018.5 1018.4 0.0
18/10:00am 19.3 16.7 15.0 76 2.5 SE 22 32 12 17 1018.6 1018.5 0.0
18/09:38am 19.3 16.8 15.2 77 2.4 SE 22 33 12 18 1018.4 1018.3 0.0
18/09:30am 19.2 16.4 15.3 78 2.3 ESE 24 33 13 18 1018.3 1018.2 0.0
18/09:28am 19.2 16.4 15.3 78 2.3 ESE 24 33 13 18 1018.3 1018.2 0.0
18/09:00am 18.7 16.7 15.6 82 1.8 SE 20 30 11 16 1018.2 1018.1 0.0
18/08:30am 18.3 16.4 15.2 82 1.8 ESE 19 28 10 15 1018.2 1018.1 0.0
18/08:00am 17.5 17.3 14.8 84 1.6 ESE 9 17 5 9 1017.9 1017.8 0.0
18/07:30am 17.1 16.9 14.7 86 1.4 ESE 9 13 5 7 1017.7 1017.6 0.0
18/07:00am 17.9 17.4 15.0 83 1.7 SE 11 15 6 8 1017.5 1017.4 0.0
18/06:30am 18.0 18.5 15.6 86 1.4 SE 7 9 4 5 1017.2 1017.1 0.0
18/06:00am 17.8 19.5 16.1 90 1.0 SSE 2 7 1 4 1017.0 1016.9 0.0
18/05:47am 17.8 18.8 16.3 91 0.9 SSE 6 7 3 4 1016.9 1016.8 0.0
18/05:30am 17.8 19.1 17.2 96 0.4 SW 6 11 3 6 1016.8 1016.7 0.0
18/05:00am 17.4 19.9 17.2 99 0.1 CALM 0 0 0 0 1016.9 1016.8 0.0
18/04:30am 17.1 18.7 16.9 99 0.1 WSW 4 9 2 5 1016.6 1016.5 0.0
18/04:00am 16.7 17.6 16.7 100 0.0 WNW 7 9 4 5 1016.7 1016.6 0.0
18/03:30am 16.0 17.2 16.0 100 0.0 WNW 4 7 2 4 1016.6 1016.5 0.0
18/03:00am 15.6 16.1 15.6 100 0.0 WNW 7 9 4 5 1016.7 1016.6 0.0
18/02:50am 15.5 15.6 15.5 100 0.0 WNW 9 9 5 5 1016.7 1016.6 0.0
18/02:45am 15.3 15.3 15.3 100 0.0 WNW 9 9 5 5 1016.7 1016.6 0.0
18/02:34am 15.1 15.6 14.9 99 0.1 WNW 6 9 3 5 1016.8 1016.7 0.0
18/02:30am 15.2 16.4 15.0 99 0.1 WNW 2 7 1 4 1016.7 1016.6 0.0
18/02:00am 16.1 16.4 15.9 99 0.1 WNW 9 13 5 7 1016.6 1016.5 0.0
18/01:30am 16.6 16.7 16.4 99 0.1 W 11 13 6 7 1016.6 1016.5 0.0
18/01:00am 17.0 16.8 16.7 98 0.2 W 13 15 7 8 1016.7 1016.6 0.0
18/12:30am 17.0 17.1 16.5 97 0.3 WNW 11 13 6 7 1016.7 1016.6 0.0
18/12:28am 17.0 17.1 16.4 96 0.4 WNW 11 15 6 8 1016.8 1016.7 0.0
18/12:00am 17.2 17.7 16.6 96 0.4 W 9 11 5 6 1016.9 1016.8 0.0
 
Date/Time
EDT
Temp
°C
App
Temp
°C
Dew
Point
°C
Rel
Hum
%
Delta-T
°C
Wind Press
QNH
hPa
Press
MSL
hPa
Rain since
9am
mm
Dir  Spd
km/h
Gust
km/h
Spd
kts
Gust
kts
17/11:53pm 17.2 18.1 16.7 97 0.3 W 7 11 4 6 1017.0 1016.9 0.0
17/11:30pm 16.6 16.8 15.8 95 0.5 WNW 9 11 5 6 1017.1 1017.0 0.0
17/11:00pm 17.6 17.7 16.6 94 0.6 WNW 11 13 6 7 1017.3 1017.2 0.0
17/10:30pm 17.6 17.7 16.5 93 0.7 WNW 11 15 6 8 1017.3 1017.2 0.0
17/10:00pm 18.8 19.2 17.3 91 0.9 WSW 11 20 6 11 1017.7 1017.6 0.0
17/09:30pm 18.9 18.6 17.4 91 0.9 WSW 15 20 8 11 1017.5 1017.4 0.0
17/09:00pm 19.0 18.5 17.8 93 0.7 SW 17 24 9 13 1017.2 1017.1 0.0
17/08:30pm 19.4 18.2 17.4 88 1.2 SW 20 28 11 15 1016.8 1016.7 0.0
17/08:00pm 20.3 18.6 16.3 78 2.4 SW 20 30 11 16 1016.5 1016.4 0.0
17/07:30pm 21.9 19.8 14.8 64 4.2 SW 19 26 10 14 1016.2 1016.1 0.0
17/07:00pm 22.8 20.8 13.8 57 5.2 SW 17 26 9 14 1016.2 1016.1 0.0
17/06:30pm 23.3 21.1 14.3 57 5.3 SSW 19 26 10 14 1016.1 1016.0 0.0
17/06:00pm 23.4 20.4 13.6 54 5.7 S 22 30 12 16 1015.9 1015.8 0.0
17/05:30pm 23.7 20.9 13.3 52 6.0 SSE 20 30 11 16 1016.1 1016.0 0.0
17/05:00pm 24.1 21.9 14.5 55 5.7 SSE 19 26 10 14 1016.2 1016.1 0.0
17/04:30pm 24.6 22.7 15.2 55 5.6 SSE 19 24 10 13 1016.3 1016.2 0.0
17/04:00pm 24.4 23.2 16.1 60 5.1 SSE 17 22 9 12 1016.4 1016.3 0.0
17/03:30pm 23.6 22.0 16.1 62 4.6 SE 19 24 10 13 1016.3 1016.2 0.0
17/03:00pm 24.6 22.9 15.8 58 5.3 SSE 19 26 10 14 1016.5 1016.4 0.0
17/02:30pm 24.1 22.6 16.4 62 4.7 S 19 28 10 15 1016.8 1016.7 0.0
17/02:00pm 24.8 23.3 16.2 58 5.2 SSE 19 26 10 14 1017.0 1016.9 0.0
17/01:30pm 25.0 22.9 15.3 55 5.8 SSW 20 26 11 14 1017.1 1017.0 0.0
17/01:00pm 24.9 23.8 16.3 59 5.3 S 17 22 9 12 1017.4 1017.3 0.0
17/12:30pm 25.0 25.1 15.6 56 5.7 S 9 13 5 7 1017.7 1017.6 0.0
17/12:00pm 24.5 24.8 16.0 59 5.2 SSW 9 15 5 8 1018.1 1018.0 0.0
17/11:30am 23.6 24.6 16.4 64 4.4 SSW 6 11 3 6 1018.5 1018.4 0.0
17/11:00am 22.0 22.3 16.1 69 3.6 SW 9 13 5 7 1018.9 1018.8 0.0
17/10:30am 21.5 22.6 16.5 73 3.0 W 6 9 3 5 1019.3 1019.2 0.0
17/10:00am 20.3 21.4 16.5 79 2.3 W 6 11 3 6 1019.4 1019.3 0.0
17/09:30am 19.2 19.8 16.8 86 1.4 W 9 11 5 6 1019.2 1019.1 0.0
17/09:14am 18.7 19.5 17.2 91 0.9 W 9 11 5 6 1019.4 1019.3 0.0
17/09:00am 18.1 19.0 17.5 96 0.4 WNW 9 13 5 7 1019.3 1019.2 0.0
17/08:30am 17.1 17.8 17.1 100 0.0 WNW 9 13 5 7 1019.2 1019.1 0.0
17/08:00am 16.4 16.8 16.4 100 0.0 WNW 9 13 5 7 1019.0 1018.9 0.0
17/07:30am 16.3 16.3 16.3 100 0.0 WNW 11 13 6 7 1018.7 1018.6 0.0
17/07:00am 15.1 15.1 15.1 100 0.0 NW 9 11 5 6 1018.3 1018.2 0.0
17/06:36am 14.4 14.5 14.4 100 0.0 NW 7 9 4 5 1018.0 1017.9 0.0
17/06:30am 14.2 14.2 14.2 100 0.0 WNW 7 9 4 5 1017.9 1017.8 0.0
17/06:00am 14.4 14.1 14.4 100 0.0 NW 9 11 5 6 1017.7 1017.6 0.0
17/05:30am 14.5 13.8 14.3 99 0.1 WNW 11 13 6 7 1017.4 1017.3 0.0
17/05:00am 14.5 13.4 14.3 99 0.1 WNW 13 15 7 8 1017.1 1017.0 0.0
17/04:30am 14.5 13.8 14.3 99 0.1 NW 11 13 6 7 1017.3 1017.2 0.0
17/04:00am 14.6 13.5 14.4 99 0.1 NW 13 15 7 8 1017.2 1017.1 0.0
17/03:30am 14.6 13.8 14.1 97 0.3 SSE 11 13 6 7 1017.3 1017.2 0.0
17/03:00am 14.5 13.5 13.4 93 0.6 SSE 11 13 6 7 1017.4 1017.3 0.0
17/02:30am 14.8 14.1 13.3 91 0.8 SSE 9 11 5 6 1017.4 1017.3 0.0
17/02:00am 15.7 15.5 14.6 93 0.6 SSE 9 11 5 6 1017.7 1017.6 0.0

Latest Capital City Observations: Canberra | Sydney | Melbourne | Brisbane | Adelaide | Perth | Hobart | Darwin

Other formats

Comma delimited format used in spreadsheet applications
http://www.bom.gov.au/fwo/IDV60901/IDV60901.94865.axf

JavaScript Object Notation format (JSON) in row-major order
http://www.bom.gov.au/fwo/IDV60901/IDV60901.94865.json

Data quality

Most of these data are generated automatically and are frequently updated. Quality checks on data are not normally performed. It is possible for incorrect values to appear. Refer to information at About Latest Weather Observations and please check the disclaimer before using these data.